Overview Statistics Trail Chart Weather Telemetry Raw packets
 

This is the latest recevied weather packets stored in our database for station/object LU2DKV-10. If no packets are shown the sender has not sent any weather packets the latest 10 day(s).

<< 1 2 3 4 5 >>
Time Temp. Humidity Pressure Rain* Wind** Luminosity Snow
1788632327 15.56° C 45% 1023 hPa - - 0 W/m² -
1788630501 14.44° C 50% 1024 hPa - - 0 W/m² -
1788628677 15° C 44% 1024 hPa - - 0 W/m² -
1788626854 13.89° C 47% 1024 hPa - - 0 W/m² -
1788625030 13.89° C 44% 1024 hPa - - 0 W/m² -
1788623207 12.78° C 44% 1024 hPa - - 0 W/m² -
1788620931 12.78° C 47% 1025 hPa - - 0 W/m² -
1788619107 12.78° C 51% 1024 hPa - - 0 W/m² -
1788617297 12.22° C 54% 1024 hPa - - 0 W/m² -
1788615459 11.67° C 56% 1024 hPa - - 0 W/m² -
1788613635 11.67° C 56% 1024 hPa - - 0 W/m² -
1788611811 11.11° C 56% 1024 hPa - - 0 W/m² -
1788609987 11.11° C 57% 1023 hPa - - 0 W/m² -
1788608164 12.22° C 55% 1023 hPa - - 0 W/m² -
1788606342 9.44° C 66% 1023 hPa - - 0 W/m² -
1788604519 8.89° C 67% 1022 hPa - - 0 W/m² -
1788602697 8.89° C 67% 1021 hPa - - 0 W/m² -
1788600875 9.44° C 66% 1021 hPa - - 0 W/m² -
1788599051 10° C 63% 1020 hPa - - 0 W/m² -
1788597229 10° C 61% 1020 hPa - - 0 W/m² -
1788595407 10° C 61% 1020 hPa - - 0 W/m² -
1788593585 10.56° C 60% 1019 hPa - - 0 W/m² -
1788591763 11.11° C 60% 1019 hPa - - 0 W/m² -
1788591155 11.11° C 60% 1019 hPa - - 0 W/m² -
1788589332 11.11° C 60% 1019 hPa - - 0 W/m² -

* Rain since midnight (hover to see other rain measurements)
** Current wind speed in m/s (hover to see current wind gust speed)